createdAt,value
2023-03-19T00:00:33.906Z,4.79
2023-03-19T00:10:40.836Z,4.94
2023-03-19T00:20:47.424Z,5.05
2023-03-19T00:30:53.956Z,5.17
2023-03-19T00:41:00.257Z,5.23
2023-03-19T00:51:09.116Z,5.27
2023-03-19T01:01:18.175Z,5.24
2023-03-19T01:11:24.581Z,5.27
2023-03-19T01:21:32.465Z,5.25
2023-03-19T01:31:38.851Z,5.09
2023-03-19T01:41:45.211Z,4.69
2023-03-19T01:51:52.549Z,4.40
2023-03-19T02:02:08.973Z,3.91
2023-03-19T02:12:15.377Z,3.47
2023-03-19T02:22:24.381Z,3.01
2023-03-19T02:32:30.725Z,2.61
2023-03-19T02:42:37.019Z,2.29
2023-03-19T02:52:43.309Z,1.96
2023-03-19T03:02:49.665Z,1.72
2023-03-19T03:12:56.042Z,1.51
2023-03-19T03:23:02.303Z,1.42
2023-03-19T03:33:08.708Z,1.37
2023-03-19T03:43:15.500Z,1.24
2023-03-19T03:53:22.644Z,1.17
2023-03-19T04:03:29.151Z,1.09
2023-03-19T04:13:38.033Z,1.08
2023-03-19T04:23:44.404Z,1.00
2023-03-19T04:33:50.954Z,0.91
2023-03-19T04:43:57.561Z,0.82
2023-03-19T04:54:03.959Z,0.76
2023-03-19T05:04:10.884Z,0.75
2023-03-19T05:14:17.210Z,0.79
2023-03-19T05:24:23.492Z,1.07
2023-03-19T05:34:30.594Z,1.53
2023-03-19T05:44:36.972Z,2.05
2023-03-19T05:54:43.543Z,2.91
2023-03-19T06:04:49.835Z,3.54
2023-03-19T06:14:56.231Z,4.13
2023-03-19T06:25:02.588Z,4.86
2023-03-19T06:35:09.897Z,5.45
2023-03-19T06:45:17.699Z,5.94
2023-03-19T06:55:24.069Z,6.46
2023-03-19T07:05:30.450Z,6.99
2023-03-19T07:15:37.826Z,7.44
2023-03-19T07:25:44.552Z,7.71
2023-03-19T07:35:50.997Z,8.31
2023-03-19T07:45:57.380Z,8.61
2023-03-19T07:56:03.728Z,9.24
2023-03-19T08:06:10.053Z,10.04
2023-03-19T08:16:16.384Z,10.85
2023-03-19T08:26:22.709Z,11.50
2023-03-19T08:36:29.081Z,12.19
2023-03-19T08:46:35.519Z,12.93
2023-03-19T08:56:42.119Z,14.03
2023-03-19T09:06:52.341Z,14.79
2023-03-19T09:16:58.680Z,15.84
2023-03-19T09:27:05.387Z,16.32
2023-03-19T09:37:12.947Z,16.80
2023-03-19T09:47:36.036Z,17.21
2023-03-19T09:57:42.388Z,17.43
2023-03-19T10:08:22.480Z,17.75
2023-03-19T10:18:32.525Z,18.05
2023-03-19T10:28:39.811Z,17.85
2023-03-19T10:38:46.215Z,18.17
2023-03-19T10:48:52.521Z,18.27
2023-03-19T10:59:06.918Z,18.57
2023-03-19T11:09:21.445Z,18.98
2023-03-19T11:19:33.270Z,19.42
2023-03-19T11:29:43.383Z,19.68
2023-03-19T11:39:55.637Z,20.00
2023-03-19T11:50:39.552Z,19.58
2023-03-19T12:00:51.998Z,19.67
2023-03-19T12:11:23.292Z,19.65
2023-03-19T12:21:57.332Z,19.71
2023-03-19T12:32:12.850Z,19.74
2023-03-19T12:42:21.341Z,19.65
2023-03-19T12:52:37.240Z,19.40
2023-03-19T13:02:55.289Z,19.29
2023-03-19T13:13:04.921Z,19.13
2023-03-19T13:23:14.887Z,18.89
2023-03-19T13:33:24.097Z,18.68
2023-03-19T13:43:30.295Z,18.54
2023-03-19T13:53:39.979Z,18.48
2023-03-19T14:03:59.666Z,18.43
2023-03-19T14:14:08.467Z,18.16
2023-03-19T14:24:55.690Z,18.07
2023-03-19T14:34:59.341Z,17.90
2023-03-19T14:45:14.865Z,17.74
2023-03-19T14:55:21.487Z,17.56
2023-03-19T15:05:37.596Z,17.33
2023-03-19T15:16:08.581Z,17.19
2023-03-19T15:26:15.092Z,16.94
2023-03-19T15:36:33.352Z,16.72
2023-03-19T15:46:42.175Z,16.48
2023-03-19T15:56:50.874Z,16.25
2023-03-19T16:06:59.615Z,15.99
2023-03-19T16:17:17.231Z,15.80
2023-03-19T16:27:37.186Z,15.56
2023-03-19T16:37:48.428Z,15.34
2023-03-19T17:05:58.624Z,15.04
